sensor_id;sensor_type;location;lat;lon;timestamp;temperature;humidity
52413;DHT22;38339;53.234;6.578;2022-08-30T00:01:33;16.10;99.90
52413;DHT22;38339;53.234;6.578;2022-08-30T00:03:59;16.10;99.90
52413;DHT22;38339;53.234;6.578;2022-08-30T00:06:26;16.10;99.90
52413;DHT22;38339;53.234;6.578;2022-08-30T00:08:53;16.00;99.90
52413;DHT22;38339;53.234;6.578;2022-08-30T00:11:22;16.00;99.90
52413;DHT22;38339;53.234;6.578;2022-08-30T00:13:49;15.90;99.90
52413;DHT22;38339;53.234;6.578;2022-08-30T00:16:17;15.90;99.90
52413;DHT22;38339;53.234;6.578;2022-08-30T00:18:43;15.80;99.90
52413;DHT22;38339;53.234;6.578;2022-08-30T00:21:09;15.80;99.90
52413;DHT22;38339;53.234;6.578;2022-08-30T00:23:36;15.70;99.90
52413;DHT22;38339;53.234;6.578;2022-08-30T00:26:02;15.70;99.90
52413;DHT22;38339;53.234;6.578;2022-08-30T00:28:28;15.70;99.90
52413;DHT22;38339;53.234;6.578;2022-08-30T00:30:54;15.70;99.90
52413;DHT22;38339;53.234;6.578;2022-08-30T00:33:21;15.70;99.90
52413;DHT22;38339;53.234;6.578;2022-08-30T00:35:47;15.70;99.90
52413;DHT22;38339;53.234;6.578;2022-08-30T00:38:13;15.60;99.90
52413;DHT22;38339;53.234;6.578;2022-08-30T00:40:42;15.60;99.90
52413;DHT22;38339;53.234;6.578;2022-08-30T00:43:12;15.60;99.90
52413;DHT22;38339;53.234;6.578;2022-08-30T00:45:38;15.60;99.90
52413;DHT22;38339;53.234;6.578;2022-08-30T00:48:05;15.50;99.90
52413;DHT22;38339;53.234;6.578;2022-08-30T00:50:35;15.50;99.90
52413;DHT22;38339;53.234;6.578;2022-08-30T00:53:05;15.50;99.90
52413;DHT22;38339;53.234;6.578;2022-08-30T00:55:32;15.50;99.90
52413;DHT22;38339;53.234;6.578;2022-08-30T00:58:01;15.50;99.90
52413;DHT22;38339;53.234;6.578;2022-08-30T01:00:28;15.50;99.90
52413;DHT22;38339;53.234;6.578;2022-08-30T01:02:54;15.60;99.90
52413;DHT22;38339;53.234;6.578;2022-08-30T01:05:20;15.60;99.90
52413;DHT22;38339;53.234;6.578;2022-08-30T01:07:46;15.60;99.90
52413;DHT22;38339;53.234;6.578;2022-08-30T01:10:13;15.70;99.90
52413;DHT22;38339;53.234;6.578;2022-08-30T01:12:41;15.70;99.90
52413;DHT22;38339;53.234;6.578;2022-08-30T01:15:08;15.70;99.90
52413;DHT22;38339;53.234;6.578;2022-08-30T01:17:34;15.70;99.90
52413;DHT22;38339;53.234;6.578;2022-08-30T01:20:05;15.70;99.90
52413;DHT22;38339;53.234;6.578;2022-08-30T01:25:24;15.70;99.90
52413;DHT22;38339;53.234;6.578;2022-08-30T01:28:03;15.70;99.90
52413;DHT22;38339;53.234;6.578;2022-08-30T01:30:30;15.60;99.90
52413;DHT22;38339;53.234;6.578;2022-08-30T01:32:59;15.60;99.90
52413;DHT22;38339;53.234;6.578;2022-08-30T01:35:27;15.70;99.90
52413;DHT22;38339;53.234;6.578;2022-08-30T01:37:53;15.70;99.90
52413;DHT22;38339;53.234;6.578;2022-08-30T01:40:19;15.70;99.90
52413;DHT22;38339;53.234;6.578;2022-08-30T01:42:45;15.80;99.90
52413;DHT22;38339;53.234;6.578;2022-08-30T01:45:11;15.80;99.90
52413;DHT22;38339;53.234;6.578;2022-08-30T01:47:37;15.80;99.90
52413;DHT22;38339;53.234;6.578;2022-08-30T01:50:05;15.80;99.90
52413;DHT22;38339;53.234;6.578;2022-08-30T01:52:31;15.80;99.90
52413;DHT22;38339;53.234;6.578;2022-08-30T01:54:57;15.80;99.90
52413;DHT22;38339;53.234;6.578;2022-08-30T01:57:23;15.90;99.90
52413;DHT22;38339;53.234;6.578;2022-08-30T01:59:51;15.90;99.90
52413;DHT22;38339;53.234;6.578;2022-08-30T02:02:21;15.90;99.90
52413;DHT22;38339;53.234;6.578;2022-08-30T02:04:48;15.90;99.90
52413;DHT22;38339;53.234;6.578;2022-08-30T02:07:14;15.80;99.90
52413;DHT22;38339;53.234;6.578;2022-08-30T02:09:40;15.90;99.90
52413;DHT22;38339;53.234;6.578;2022-08-30T02:12:06;15.80;99.90
52413;DHT22;38339;53.234;6.578;2022-08-30T02:14:36;15.80;99.90
52413;DHT22;38339;53.234;6.578;2022-08-30T02:17:04;15.90;99.90
52413;DHT22;38339;53.234;6.578;2022-08-30T02:19:30;15.80;99.90
52413;DHT22;38339;53.234;6.578;2022-08-30T02:21:55;15.80;99.90
52413;DHT22;38339;53.234;6.578;2022-08-30T02:24:21;15.80;99.90
52413;DHT22;38339;53.234;6.578;2022-08-30T02:26:47;15.80;99.90
52413;DHT22;38339;53.234;6.578;2022-08-30T02:29:13;15.80;99.90
52413;DHT22;38339;53.234;6.578;2022-08-30T02:31:39;15.80;99.90
52413;DHT22;38339;53.234;6.578;2022-08-30T02:34:05;15.80;99.90
52413;DHT22;38339;53.234;6.578;2022-08-30T02:36:31;15.80;99.90
52413;DHT22;38339;53.234;6.578;2022-08-30T02:38:56;15.90;99.90
52413;DHT22;38339;53.234;6.578;2022-08-30T02:41:22;15.90;99.90
52413;DHT22;38339;53.234;6.578;2022-08-30T02:43:49;15.90;99.90
52413;DHT22;38339;53.234;6.578;2022-08-30T02:46:15;15.80;99.90
52413;DHT22;38339;53.234;6.578;2022-08-30T02:48:41;15.80;99.90
52413;DHT22;38339;53.234;6.578;2022-08-30T02:51:10;15.80;99.90
52413;DHT22;38339;53.234;6.578;2022-08-30T02:53:36;15.80;99.90
52413;DHT22;38339;53.234;6.578;2022-08-30T02:56:03;15.90;99.90
52413;DHT22;38339;53.234;6.578;2022-08-30T02:58:29;15.90;99.90
52413;DHT22;38339;53.234;6.578;2022-08-30T03:00:54;15.70;99.90
52413;DHT22;38339;53.234;6.578;2022-08-30T03:03:20;15.90;99.90
52413;DHT22;38339;53.234;6.578;2022-08-30T03:05:46;15.80;99.90
52413;DHT22;38339;53.234;6.578;2022-08-30T03:08:11;15.90;99.90
52413;DHT22;38339;53.234;6.578;2022-08-30T03:10:37;15.90;99.90
52413;DHT22;38339;53.234;6.578;2022-08-30T03:13:04;15.90;99.90
52413;DHT22;38339;53.234;6.578;2022-08-30T03:15:32;15.80;99.90
52413;DHT22;38339;53.234;6.578;2022-08-30T03:17:58;15.80;99.90
52413;DHT22;38339;53.234;6.578;2022-08-30T03:20:24;15.80;99.90
52413;DHT22;38339;53.234;6.578;2022-08-30T03:22:50;15.80;99.90
52413;DHT22;38339;53.234;6.578;2022-08-30T03:25:16;15.80;99.90
52413;DHT22;38339;53.234;6.578;2022-08-30T03:27:42;15.80;99.90
52413;DHT22;38339;53.234;6.578;2022-08-30T03:30:08;15.80;99.90
52413;DHT22;38339;53.234;6.578;2022-08-30T03:32:34;15.80;99.90
52413;DHT22;38339;53.234;6.578;2022-08-30T03:35:00;15.80;99.90
52413;DHT22;38339;53.234;6.578;2022-08-30T03:37:26;15.80;99.90
52413;DHT22;38339;53.234;6.578;2022-08-30T03:39:53;15.80;99.90
52413;DHT22;38339;53.234;6.578;2022-08-30T03:42:19;15.80;99.90
52413;DHT22;38339;53.234;6.578;2022-08-30T03:44:46;15.80;99.90
52413;DHT22;38339;53.234;6.578;2022-08-30T03:47:11;15.80;99.90
52413;DHT22;38339;53.234;6.578;2022-08-30T03:49:38;15.70;99.90
52413;DHT22;38339;53.234;6.578;2022-08-30T03:52:04;15.80;99.90
52413;DHT22;38339;53.234;6.578;2022-08-30T03:54:31;15.70;99.90
52413;DHT22;38339;53.234;6.578;2022-08-30T03:56:57;15.70;99.90
52413;DHT22;38339;53.234;6.578;2022-08-30T03:59:23;15.70;99.90
52413;DHT22;38339;53.234;6.578;2022-08-30T04:01:48;15.70;99.90
52413;DHT22;38339;53.234;6.578;2022-08-30T04:04:15;15.70;99.90
52413;DHT22;38339;53.234;6.578;2022-08-30T04:06:40;15.60;99.90
52413;DHT22;38339;53.234;6.578;2022-08-30T04:09:07;15.60;99.90
52413;DHT22;38339;53.234;6.578;2022-08-30T04:11:33;15.60;99.90
52413;DHT22;38339;53.234;6.578;2022-08-30T04:13:59;15.60;99.90
52413;DHT22;38339;53.234;6.578;2022-08-30T04:16:24;15.60;99.90
52413;DHT22;38339;53.234;6.578;2022-08-30T04:18:50;15.60;99.90
52413;DHT22;38339;53.234;6.578;2022-08-30T04:21:16;15.60;99.90
52413;DHT22;38339;53.234;6.578;2022-08-30T04:23:42;15.60;99.90
52413;DHT22;38339;53.234;6.578;2022-08-30T04:26:09;15.60;99.90
52413;DHT22;38339;53.234;6.578;2022-08-30T04:28:36;15.50;99.90
52413;DHT22;38339;53.234;6.578;2022-08-30T04:31:10;15.50;99.90
52413;DHT22;38339;53.234;6.578;2022-08-30T04:33:36;15.40;99.90
52413;DHT22;38339;53.234;6.578;2022-08-30T04:36:04;15.40;99.90
52413;DHT22;38339;53.234;6.578;2022-08-30T04:38:31;15.40;99.90
52413;DHT22;38339;53.234;6.578;2022-08-30T04:40:58;15.40;99.90
52413;DHT22;38339;53.234;6.578;2022-08-30T04:43:24;15.40;99.90
52413;DHT22;38339;53.234;6.578;2022-08-30T04:45:53;15.40;99.90
52413;DHT22;38339;53.234;6.578;2022-08-30T04:48:20;15.40;99.90
52413;DHT22;38339;53.234;6.578;2022-08-30T04:50:47;15.40;99.90
52413;DHT22;38339;53.234;6.578;2022-08-30T04:53:13;15.40;99.90
52413;DHT22;38339;53.234;6.578;2022-08-30T04:55:40;15.40;99.90
52413;DHT22;38339;53.234;6.578;2022-08-30T04:58:08;15.40;99.90
52413;DHT22;38339;53.234;6.578;2022-08-30T05:00:34;15.30;99.90
52413;DHT22;38339;53.234;6.578;2022-08-30T05:03:02;15.30;99.90
52413;DHT22;38339;53.234;6.578;2022-08-30T05:05:28;15.30;99.90
52413;DHT22;38339;53.234;6.578;2022-08-30T05:08:12;15.30;99.90
52413;DHT22;38339;53.234;6.578;2022-08-30T05:10:45;15.30;99.90
52413;DHT22;38339;53.234;6.578;2022-08-30T05:13:11;15.30;99.90
52413;DHT22;38339;53.234;6.578;2022-08-30T05:15:37;15.30;99.90
52413;DHT22;38339;53.234;6.578;2022-08-30T05:18:07;15.30;99.90
52413;DHT22;38339;53.234;6.578;2022-08-30T05:20:33;15.30;99.90
52413;DHT22;38339;53.234;6.578;2022-08-30T05:22:59;15.20;99.90
52413;DHT22;38339;53.234;6.578;2022-08-30T05:25:27;15.20;99.90
52413;DHT22;38339;53.234;6.578;2022-08-30T05:27:53;15.30;99.90
52413;DHT22;38339;53.234;6.578;2022-08-30T05:30:19;15.30;99.90
52413;DHT22;38339;53.234;6.578;2022-08-30T05:32:45;15.20;99.90
52413;DHT22;38339;53.234;6.578;2022-08-30T05:35:12;15.00;99.90
52413;DHT22;38339;53.234;6.578;2022-08-30T05:37:38;15.30;99.90
52413;DHT22;38339;53.234;6.578;2022-08-30T05:40:05;15.30;99.90
52413;DHT22;38339;53.234;6.578;2022-08-30T05:42:32;15.30;99.90
52413;DHT22;38339;53.234;6.578;2022-08-30T05:44:58;15.30;99.90
52413;DHT22;38339;53.234;6.578;2022-08-30T05:47:23;15.30;99.90
52413;DHT22;38339;53.234;6.578;2022-08-30T05:49:49;15.30;99.90
52413;DHT22;38339;53.234;6.578;2022-08-30T05:52:15;15.30;99.90
52413;DHT22;38339;53.234;6.578;2022-08-30T05:54:51;15.40;99.90
52413;DHT22;38339;53.234;6.578;2022-08-30T05:57:18;15.40;99.90
52413;DHT22;38339;53.234;6.578;2022-08-30T05:59:44;15.40;99.90
52413;DHT22;38339;53.234;6.578;2022-08-30T06:02:10;15.50;99.90
52413;DHT22;38339;53.234;6.578;2022-08-30T06:04:35;15.50;99.90
52413;DHT22;38339;53.234;6.578;2022-08-30T06:07:02;15.60;99.90
52413;DHT22;38339;53.234;6.578;2022-08-30T06:09:28;15.60;99.90
52413;DHT22;38339;53.234;6.578;2022-08-30T06:11:55;15.60;99.90
52413;DHT22;38339;53.234;6.578;2022-08-30T06:14:22;15.70;99.90
52413;DHT22;38339;53.234;6.578;2022-08-30T06:16:48;15.70;99.90
52413;DHT22;38339;53.234;6.578;2022-08-30T06:19:14;15.80;99.90
52413;DHT22;38339;53.234;6.578;2022-08-30T06:21:41;15.90;99.90
52413;DHT22;38339;53.234;6.578;2022-08-30T06:24:09;15.90;99.90
52413;DHT22;38339;53.234;6.578;2022-08-30T06:26:41;16.00;99.90
52413;DHT22;38339;53.234;6.578;2022-08-30T06:29:11;16.00;99.90
52413;DHT22;38339;53.234;6.578;2022-08-30T06:31:43;16.00;99.90
52413;DHT22;38339;53.234;6.578;2022-08-30T06:34:09;16.10;99.90
52413;DHT22;38339;53.234;6.578;2022-08-30T06:36:35;16.20;99.90
52413;DHT22;38339;53.234;6.578;2022-08-30T06:39:01;16.20;99.90
52413;DHT22;38339;53.234;6.578;2022-08-30T06:41:29;16.40;99.90
52413;DHT22;38339;53.234;6.578;2022-08-30T06:43:57;16.30;99.90
52413;DHT22;38339;53.234;6.578;2022-08-30T06:46:29;16.30;99.90
52413;DHT22;38339;53.234;6.578;2022-08-30T06:48:56;16.40;99.90
52413;DHT22;38339;53.234;6.578;2022-08-30T06:51:31;16.50;99.90
52413;DHT22;38339;53.234;6.578;2022-08-30T06:53:58;16.50;99.90
52413;DHT22;38339;53.234;6.578;2022-08-30T06:56:26;16.50;99.90
52413;DHT22;38339;53.234;6.578;2022-08-30T06:58:52;16.60;99.90
52413;DHT22;38339;53.234;6.578;2022-08-30T07:01:22;16.60;99.90
52413;DHT22;38339;53.234;6.578;2022-08-30T07:03:48;16.70;99.90
52413;DHT22;38339;53.234;6.578;2022-08-30T07:06:15;16.80;99.90
52413;DHT22;38339;53.234;6.578;2022-08-30T07:08:41;16.90;99.90
52413;DHT22;38339;53.234;6.578;2022-08-30T07:11:07;16.90;99.90
52413;DHT22;38339;53.234;6.578;2022-08-30T07:13:34;16.90;99.90
52413;DHT22;38339;53.234;6.578;2022-08-30T07:16:11;17.00;99.90
52413;DHT22;38339;53.234;6.578;2022-08-30T07:18:37;17.00;99.90
52413;DHT22;38339;53.234;6.578;2022-08-30T07:21:17;17.10;99.90
52413;DHT22;38339;53.234;6.578;2022-08-30T07:23:45;17.20;99.90
52413;DHT22;38339;53.234;6.578;2022-08-30T07:26:14;17.20;99.90
52413;DHT22;38339;53.234;6.578;2022-08-30T07:28:42;17.30;99.90
52413;DHT22;38339;53.234;6.578;2022-08-30T07:31:08;17.30;99.90
52413;DHT22;38339;53.234;6.578;2022-08-30T07:33:35;17.40;99.90
52413;DHT22;38339;53.234;6.578;2022-08-30T07:36:00;17.40;99.90
52413;DHT22;38339;53.234;6.578;2022-08-30T07:38:27;17.50;99.90
52413;DHT22;38339;53.234;6.578;2022-08-30T07:40:53;17.60;99.90
52413;DHT22;38339;53.234;6.578;2022-08-30T07:43:19;17.70;99.90
52413;DHT22;38339;53.234;6.578;2022-08-30T07:45:45;17.70;99.90
52413;DHT22;38339;53.234;6.578;2022-08-30T07:48:11;17.70;99.90
52413;DHT22;38339;53.234;6.578;2022-08-30T07:50:41;17.70;99.90
52413;DHT22;38339;53.234;6.578;2022-08-30T07:53:07;17.70;99.90
52413;DHT22;38339;53.234;6.578;2022-08-30T07:55:33;17.80;99.90
52413;DHT22;38339;53.234;6.578;2022-08-30T07:57:58;17.90;99.90
52413;DHT22;38339;53.234;6.578;2022-08-30T08:00:25;17.90;99.90
52413;DHT22;38339;53.234;6.578;2022-08-30T08:02:51;18.00;99.90
52413;DHT22;38339;53.234;6.578;2022-08-30T08:05:16;18.10;99.90
52413;DHT22;38339;53.234;6.578;2022-08-30T08:07:42;18.10;99.90
52413;DHT22;38339;53.234;6.578;2022-08-30T08:10:08;18.00;99.90
52413;DHT22;38339;53.234;6.578;2022-08-30T08:12:34;18.20;99.90
52413;DHT22;38339;53.234;6.578;2022-08-30T08:15:01;18.30;99.90
52413;DHT22;38339;53.234;6.578;2022-08-30T08:17:28;18.40;99.90
52413;DHT22;38339;53.234;6.578;2022-08-30T08:19:53;18.40;99.90
52413;DHT22;38339;53.234;6.578;2022-08-30T08:22:19;18.50;99.90
52413;DHT22;38339;53.234;6.578;2022-08-30T08:24:45;18.60;99.90
52413;DHT22;38339;53.234;6.578;2022-08-30T08:27:11;18.70;99.90
52413;DHT22;38339;53.234;6.578;2022-08-30T08:29:37;18.70;99.90
52413;DHT22;38339;53.234;6.578;2022-08-30T08:32:03;18.80;99.90
52413;DHT22;38339;53.234;6.578;2022-08-30T08:34:29;18.80;99.90
52413;DHT22;38339;53.234;6.578;2022-08-30T08:36:55;19.00;99.90
52413;DHT22;38339;53.234;6.578;2022-08-30T08:39:20;19.10;99.90
52413;DHT22;38339;53.234;6.578;2022-08-30T08:42:08;19.10;99.90
52413;DHT22;38339;53.234;6.578;2022-08-30T08:45:10;19.10;99.90
52413;DHT22;38339;53.234;6.578;2022-08-30T08:50:10;19.00;99.90
52413;DHT22;38339;53.234;6.578;2022-08-30T08:53:00;19.00;99.90
52413;DHT22;38339;53.234;6.578;2022-08-30T08:55:49;19.10;99.90
52413;DHT22;38339;53.234;6.578;2022-08-30T08:58:28;19.10;99.90
52413;DHT22;38339;53.234;6.578;2022-08-30T09:00:56;19.10;99.90
52413;DHT22;38339;53.234;6.578;2022-08-30T09:03:27;19.10;99.90
52413;DHT22;38339;53.234;6.578;2022-08-30T09:05:54;19.10;99.90
52413;DHT22;38339;53.234;6.578;2022-08-30T09:08:21;19.10;99.90
52413;DHT22;38339;53.234;6.578;2022-08-30T09:11:17;19.20;99.90
52413;DHT22;38339;53.234;6.578;2022-08-30T09:13:45;19.30;99.90
52413;DHT22;38339;53.234;6.578;2022-08-30T09:22:00;19.40;99.90
52413;DHT22;38339;53.234;6.578;2022-08-30T09:24:36;19.40;99.90
52413;DHT22;38339;53.234;6.578;2022-08-30T09:29:51;19.40;99.90
52413;DHT22;38339;53.234;6.578;2022-08-30T09:32:23;19.40;99.90
52413;DHT22;38339;53.234;6.578;2022-08-30T09:34:49;19.40;99.90
52413;DHT22;38339;53.234;6.578;2022-08-30T09:37:28;19.40;99.90
52413;DHT22;38339;53.234;6.578;2022-08-30T09:39:55;19.30;99.90
52413;DHT22;38339;53.234;6.578;2022-08-30T09:42:24;19.30;99.90
52413;DHT22;38339;53.234;6.578;2022-08-30T09:44:52;19.30;99.70
52413;DHT22;38339;53.234;6.578;2022-08-30T09:47:27;19.20;99.60
52413;DHT22;38339;53.234;6.578;2022-08-30T09:50:15;19.30;99.40
52413;DHT22;38339;53.234;6.578;2022-08-30T09:55:50;19.30;99.90
52413;DHT22;38339;53.234;6.578;2022-08-30T09:58:39;19.40;99.80
52413;DHT22;38339;53.234;6.578;2022-08-30T10:01:14;19.40;99.90
52413;DHT22;38339;53.234;6.578;2022-08-30T10:06:45;19.60;99.30
52413;DHT22;38339;53.234;6.578;2022-08-30T10:20:28;20.00;99.20
52413;DHT22;38339;53.234;6.578;2022-08-30T10:25:31;20.00;97.80
52413;DHT22;38339;53.234;6.578;2022-08-30T10:28:16;20.00;97.50
52413;DHT22;38339;53.234;6.578;2022-08-30T10:30:51;20.10;97.80
52413;DHT22;38339;53.234;6.578;2022-08-30T10:33:22;20.00;98.10
52413;DHT22;38339;53.234;6.578;2022-08-30T10:36:02;19.90;98.60
52413;DHT22;38339;53.234;6.578;2022-08-30T10:38:32;20.00;98.80
52413;DHT22;38339;53.234;6.578;2022-08-30T10:41:28;20.00;98.80
52413;DHT22;38339;53.234;6.578;2022-08-30T10:47:01;20.10;97.20
52413;DHT22;38339;53.234;6.578;2022-08-30T10:49:38;20.20;97.00
52413;DHT22;38339;53.234;6.578;2022-08-30T10:54:42;20.30;97.60
52413;DHT22;38339;53.234;6.578;2022-08-30T10:57:11;20.40;97.50
52413;DHT22;38339;53.234;6.578;2022-08-30T10:59:41;20.50;97.70
52413;DHT22;38339;53.234;6.578;2022-08-30T11:08:26;20.50;97.50
52413;DHT22;38339;53.234;6.578;2022-08-30T11:10:49;20.60;96.80
52413;DHT22;38339;53.234;6.578;2022-08-30T11:13:23;20.50;96.60
52413;DHT22;38339;53.234;6.578;2022-08-30T11:16:00;20.50;96.30
52413;DHT22;38339;53.234;6.578;2022-08-30T11:19:04;20.50;96.50
52413;DHT22;38339;53.234;6.578;2022-08-30T11:21:34;20.50;96.20
52413;DHT22;38339;53.234;6.578;2022-08-30T11:24:07;20.50;95.80
52413;DHT22;38339;53.234;6.578;2022-08-30T11:31:59;20.60;96.20
52413;DHT22;38339;53.234;6.578;2022-08-30T11:42:45;20.90;95.10
52413;DHT22;38339;53.234;6.578;2022-08-30T11:47:48;21.00;95.00
52413;DHT22;38339;53.234;6.578;2022-08-30T11:50:25;21.00;95.20
52413;DHT22;38339;53.234;6.578;2022-08-30T11:55:55;20.90;96.10
52413;DHT22;38339;53.234;6.578;2022-08-30T11:58:33;20.90;95.60
52413;DHT22;38339;53.234;6.578;2022-08-30T12:01:15;21.00;95.50
52413;DHT22;38339;53.234;6.578;2022-08-30T12:03:42;21.10;95.80
52413;DHT22;38339;53.234;6.578;2022-08-30T12:06:10;21.10;96.00
52413;DHT22;38339;53.234;6.578;2022-08-30T12:08:42;21.20;96.20
52413;DHT22;38339;53.234;6.578;2022-08-30T12:16:17;21.50;94.70
52413;DHT22;38339;53.234;6.578;2022-08-30T12:24:00;21.50;94.10
52413;DHT22;38339;53.234;6.578;2022-08-30T12:29:25;21.40;94.80
52413;DHT22;38339;53.234;6.578;2022-08-30T12:32:14;21.40;95.40
52413;DHT22;38339;53.234;6.578;2022-08-30T12:39:44;21.30;95.60
52413;DHT22;38339;53.234;6.578;2022-08-30T12:44:42;21.30;95.20
52413;DHT22;38339;53.234;6.578;2022-08-30T12:47:10;21.30;95.30
52413;DHT22;38339;53.234;6.578;2022-08-30T12:49:38;21.30;95.40
52413;DHT22;38339;53.234;6.578;2022-08-30T12:52:33;21.30;95.10
52413;DHT22;38339;53.234;6.578;2022-08-30T12:55:29;21.30;95.00
52413;DHT22;38339;53.234;6.578;2022-08-30T12:58:07;21.30;95.60
52413;DHT22;38339;53.234;6.578;2022-08-30T13:00:46;21.40;95.20
52413;DHT22;38339;53.234;6.578;2022-08-30T13:05:50;21.50;95.80
52413;DHT22;38339;53.234;6.578;2022-08-30T13:11:03;21.60;94.50
52413;DHT22;38339;53.234;6.578;2022-08-30T13:14:34;21.70;94.40
52413;DHT22;38339;53.234;6.578;2022-08-30T13:16:36;21.70;94.50
52413;DHT22;38339;53.234;6.578;2022-08-30T13:21:55;21.70;94.90
52413;DHT22;38339;53.234;6.578;2022-08-30T13:24:21;21.80;94.90
52413;DHT22;38339;53.234;6.578;2022-08-30T13:26:48;21.70;95.00
52413;DHT22;38339;53.234;6.578;2022-08-30T13:29:19;21.60;95.00
52413;DHT22;38339;53.234;6.578;2022-08-30T13:31:45;21.60;94.90
52413;DHT22;38339;53.234;6.578;2022-08-30T13:34:11;21.70;94.60
52413;DHT22;38339;53.234;6.578;2022-08-30T13:36:45;21.80;94.60
52413;DHT22;38339;53.234;6.578;2022-08-30T13:39:11;21.90;94.20
52413;DHT22;38339;53.234;6.578;2022-08-30T13:41:38;22.10;94.10
52413;DHT22;38339;53.234;6.578;2022-08-30T13:44:04;22.10;94.40
52413;DHT22;38339;53.234;6.578;2022-08-30T13:46:30;22.00;94.70
52413;DHT22;38339;53.234;6.578;2022-08-30T13:49:04;22.00;94.70
52413;DHT22;38339;53.234;6.578;2022-08-30T13:51:30;22.10;94.70
52413;DHT22;38339;53.234;6.578;2022-08-30T13:53:56;22.20;94.70
52413;DHT22;38339;53.234;6.578;2022-08-30T13:56:23;22.40;94.60
52413;DHT22;38339;53.234;6.578;2022-08-30T13:58:49;22.40;94.70
52413;DHT22;38339;53.234;6.578;2022-08-30T14:01:15;22.40;95.00
52413;DHT22;38339;53.234;6.578;2022-08-30T14:03:41;22.30;95.30
52413;DHT22;38339;53.234;6.578;2022-08-30T14:06:07;22.20;95.60
52413;DHT22;38339;53.234;6.578;2022-08-30T14:08:33;22.20;95.60
52413;DHT22;38339;53.234;6.578;2022-08-30T14:11:02;22.20;95.60
52413;DHT22;38339;53.234;6.578;2022-08-30T14:13:27;22.20;95.90
52413;DHT22;38339;53.234;6.578;2022-08-30T14:15:54;22.10;96.20
52413;DHT22;38339;53.234;6.578;2022-08-30T14:18:20;22.20;96.40
52413;DHT22;38339;53.234;6.578;2022-08-30T14:20:46;22.40;96.10
52413;DHT22;38339;53.234;6.578;2022-08-30T14:23:12;22.50;96.00
52413;DHT22;38339;53.234;6.578;2022-08-30T14:25:38;22.50;95.80
52413;DHT22;38339;53.234;6.578;2022-08-30T14:28:04;22.40;95.70
52413;DHT22;38339;53.234;6.578;2022-08-30T14:30:29;22.50;95.70
52413;DHT22;38339;53.234;6.578;2022-08-30T14:32:56;22.40;96.00
52413;DHT22;38339;53.234;6.578;2022-08-30T14:35:21;22.50;95.90
52413;DHT22;38339;53.234;6.578;2022-08-30T14:37:48;22.60;95.90
52413;DHT22;38339;53.234;6.578;2022-08-30T14:40:14;22.70;95.90
52413;DHT22;38339;53.234;6.578;2022-08-30T14:42:40;22.90;95.60
52413;DHT22;38339;53.234;6.578;2022-08-30T14:45:07;22.90;95.50
52413;DHT22;38339;53.234;6.578;2022-08-30T14:47:33;22.90;95.20
52413;DHT22;38339;53.234;6.578;2022-08-30T14:49:58;22.80;95.20
52413;DHT22;38339;53.234;6.578;2022-08-30T14:52:27;22.70;95.60
52413;DHT22;38339;53.234;6.578;2022-08-30T14:54:53;22.60;95.50
52413;DHT22;38339;53.234;6.578;2022-08-30T14:57:19;22.60;95.80
52413;DHT22;38339;53.234;6.578;2022-08-30T14:59:45;22.60;96.00
52413;DHT22;38339;53.234;6.578;2022-08-30T15:02:11;22.60;96.00
52413;DHT22;38339;53.234;6.578;2022-08-30T15:04:36;22.60;96.10
52413;DHT22;38339;53.234;6.578;2022-08-30T15:07:02;22.50;96.20
52413;DHT22;38339;53.234;6.578;2022-08-30T15:09:28;22.60;96.30
52413;DHT22;38339;53.234;6.578;2022-08-30T15:11:57;22.70;96.20
52413;DHT22;38339;53.234;6.578;2022-08-30T15:14:24;22.80;95.90
52413;DHT22;38339;53.234;6.578;2022-08-30T15:16:52;22.90;95.70
52413;DHT22;38339;53.234;6.578;2022-08-30T15:19:18;22.70;95.60
52413;DHT22;38339;53.234;6.578;2022-08-30T15:21:46;22.70;95.80
52413;DHT22;38339;53.234;6.578;2022-08-30T15:24:18;22.50;96.10
52413;DHT22;38339;53.234;6.578;2022-08-30T15:26:45;22.60;96.30
52413;DHT22;38339;53.234;6.578;2022-08-30T15:29:15;22.70;96.40
52413;DHT22;38339;53.234;6.578;2022-08-30T15:31:42;23.00;96.10
52413;DHT22;38339;53.234;6.578;2022-08-30T15:34:11;23.20;96.10
52413;DHT22;38339;53.234;6.578;2022-08-30T15:36:38;23.50;95.10
52413;DHT22;38339;53.234;6.578;2022-08-30T15:39:05;23.70;94.70
52413;DHT22;38339;53.234;6.578;2022-08-30T15:41:31;23.70;95.00
52413;DHT22;38339;53.234;6.578;2022-08-30T15:43:57;23.60;95.20
52413;DHT22;38339;53.234;6.578;2022-08-30T15:46:35;23.70;94.90
52413;DHT22;38339;53.234;6.578;2022-08-30T15:49:05;23.70;94.90
52413;DHT22;38339;53.234;6.578;2022-08-30T15:51:32;24.50;95.20
52413;DHT22;38339;53.234;6.578;2022-08-30T15:53:59;25.90;94.50
52413;DHT22;38339;53.234;6.578;2022-08-30T15:56:25;27.00;93.20
52413;DHT22;38339;53.234;6.578;2022-08-30T15:58:50;27.70;92.20
52413;DHT22;38339;53.234;6.578;2022-08-30T16:01:17;28.00;91.40
52413;DHT22;38339;53.234;6.578;2022-08-30T16:03:43;28.40;91.20
52413;DHT22;38339;53.234;6.578;2022-08-30T16:06:15;28.80;90.70
52413;DHT22;38339;53.234;6.578;2022-08-30T16:08:42;29.30;90.30
52413;DHT22;38339;53.234;6.578;2022-08-30T16:11:09;29.60;88.90
52413;DHT22;38339;53.234;6.578;2022-08-30T16:13:35;29.70;87.20
52413;DHT22;38339;53.234;6.578;2022-08-30T16:16:06;29.60;87.20
52413;DHT22;38339;53.234;6.578;2022-08-30T16:18:32;29.70;87.40
52413;DHT22;38339;53.234;6.578;2022-08-30T16:21:03;29.90;85.90
52413;DHT22;38339;53.234;6.578;2022-08-30T16:23:29;29.90;85.90
52413;DHT22;38339;53.234;6.578;2022-08-30T16:25:55;29.90;85.60
52413;DHT22;38339;53.234;6.578;2022-08-30T16:28:20;30.30;84.20
52413;DHT22;38339;53.234;6.578;2022-08-30T16:30:46;30.30;83.60
52413;DHT22;38339;53.234;6.578;2022-08-30T16:33:12;30.10;84.00
52413;DHT22;38339;53.234;6.578;2022-08-30T16:35:37;30.00;83.00
52413;DHT22;38339;53.234;6.578;2022-08-30T16:38:03;30.00;82.20
52413;DHT22;38339;53.234;6.578;2022-08-30T16:40:29;29.70;82.50
52413;DHT22;38339;53.234;6.578;2022-08-30T16:42:54;29.60;82.80
52413;DHT22;38339;53.234;6.578;2022-08-30T16:45:20;29.80;82.90
52413;DHT22;38339;53.234;6.578;2022-08-30T16:47:46;29.90;81.80
52413;DHT22;38339;53.234;6.578;2022-08-30T16:50:13;29.90;81.20
52413;DHT22;38339;53.234;6.578;2022-08-30T16:52:41;30.00;80.90
52413;DHT22;38339;53.234;6.578;2022-08-30T16:55:07;29.80;80.80
52413;DHT22;38339;53.234;6.578;2022-08-30T16:57:32;29.90;79.60
52413;DHT22;38339;53.234;6.578;2022-08-30T16:59:58;29.70;79.40
52413;DHT22;38339;53.234;6.578;2022-08-30T17:02:24;29.20;80.20
52413;DHT22;38339;53.234;6.578;2022-08-30T17:04:49;29.10;80.40
52413;DHT22;38339;53.234;6.578;2022-08-30T17:07:15;29.10;79.60
52413;DHT22;38339;53.234;6.578;2022-08-30T17:09:41;29.10;78.90
52413;DHT22;38339;53.234;6.578;2022-08-30T17:12:07;28.90;79.30